createdAt,value
2018-10-19T00:00:41.312Z,1020.13
2018-10-19T00:01:49.954Z,1020.14
2018-10-19T00:02:58.592Z,1020.09
2018-10-19T00:04:07.558Z,1020.1
2018-10-19T00:05:16.274Z,1020.08
2018-10-19T00:06:24.838Z,1020.03
2018-10-19T00:07:33.478Z,1020.05
2018-10-19T00:08:42.112Z,1020.06
2018-10-19T00:09:50.753Z,1020.05
2018-10-19T00:10:59.676Z,1020.03
2018-10-19T00:12:08.643Z,1019.94
2018-10-19T00:13:17.274Z,1019.98
2018-10-19T00:14:25.916Z,1019.97
2018-10-19T00:15:34.816Z,1019.97
2018-10-19T00:16:43.461Z,1020.01
2018-10-19T00:17:52.095Z,1020.01
2018-10-19T00:19:00.737Z,1019.99
2018-10-19T00:20:09.644Z,1019.98
2018-10-19T00:21:18.285Z,1019.94
2018-10-19T00:22:26.922Z,1019.96
2018-10-19T00:23:35.560Z,1019.96
2018-10-19T00:24:44.197Z,1019.97
2018-10-19T00:25:52.833Z,1019.97
2018-10-19T00:27:01.529Z,1019.96
2018-10-19T00:28:10.551Z,1019.99
2018-10-19T00:29:19.190Z,1019.95
2018-10-19T00:30:27.824Z,1020
2018-10-19T00:31:36.467Z,1019.92
2018-10-19T00:32:45.106Z,1019.92
2018-10-19T00:33:53.748Z,1019.92
2018-10-19T00:35:02.415Z,1019.92
2018-10-19T00:36:11.457Z,1019.9
2018-10-19T00:37:20.096Z,1019.9
2018-10-19T00:38:28.739Z,1019.88
2018-10-19T00:39:37.373Z,1019.89
2018-10-19T00:40:46.014Z,1019.92
2018-10-19T00:41:54.648Z,1019.88
2018-10-19T00:43:03.288Z,1019.87
2018-10-19T00:44:11.930Z,1019.87
2018-10-19T00:45:20.565Z,1019.88
2018-10-19T00:46:29.475Z,1019.88
2018-10-19T00:47:38.113Z,1019.88
2018-10-19T00:48:47.020Z,1019.84
2018-10-19T00:49:55.649Z,1019.84
2018-10-19T00:51:04.589Z,1019.83
2018-10-19T00:52:13.195Z,1019.81
2018-10-19T00:53:21.843Z,1019.8
2018-10-19T00:54:30.473Z,1019.79
2018-10-19T00:55:39.115Z,1019.76
2018-10-19T00:56:47.757Z,1019.75
2018-10-19T00:57:56.405Z,1019.78
2018-10-19T00:59:05.107Z,1019.81
2018-10-19T01:00:14.143Z,1019.73
2018-10-19T01:01:22.780Z,1019.78
2018-10-19T01:02:31.416Z,1019.78
2018-10-19T01:03:40.063Z,1019.76
2018-10-19T01:04:48.697Z,1019.72
2018-10-19T01:05:57.662Z,1019.76
2018-10-19T01:07:06.291Z,1019.73
2018-10-19T01:08:14.947Z,1019.74
2018-10-19T01:09:23.582Z,1019.72
2018-10-19T01:10:32.228Z,1019.74
2018-10-19T01:11:40.858Z,1019.74
2018-10-19T01:12:49.506Z,1019.74
2018-10-19T01:13:58.144Z,1019.74
2018-10-19T01:15:06.950Z,1019.72
2018-10-19T01:16:15.419Z,1019.73
2018-10-19T01:17:24.061Z,1019.73
2018-10-19T01:18:32.705Z,1019.71
2018-10-19T01:19:41.345Z,1019.76
2018-10-19T01:20:49.997Z,1019.73
2018-10-19T01:21:59.162Z,1019.77
2018-10-19T01:23:07.887Z,1019.77
2018-10-19T01:24:16.439Z,1019.73
2018-10-19T01:25:25.087Z,1019.76
2018-10-19T01:26:33.713Z,1019.7
2018-10-19T01:27:42.358Z,1019.73
2018-10-19T01:28:50.989Z,1019.69
2018-10-19T01:29:59.637Z,1019.73
2018-10-19T01:31:08.268Z,1019.73
2018-10-19T01:32:16.912Z,1019.76
2018-10-19T01:33:25.547Z,1019.75
2018-10-19T01:34:34.458Z,1019.77
2018-10-19T01:35:43.094Z,1019.81
2018-10-19T01:36:51.727Z,1019.78
2018-10-19T01:38:00.370Z,1019.78
2018-10-19T01:39:09.349Z,1019.74
2018-10-19T01:40:17.917Z,1019.8
2018-10-19T01:41:26.816Z,1019.84
2018-10-19T01:42:35.455Z,1019.85
2018-10-19T01:43:44.084Z,1019.84
2018-10-19T01:44:52.727Z,1019.86
2018-10-19T01:46:01.675Z,1019.88
2018-10-19T01:47:10.381Z,1019.88
2018-10-19T01:48:18.959Z,1019.89
2018-10-19T01:49:27.595Z,1019.87
2018-10-19T01:50:36.235Z,1019.91
2018-10-19T01:51:44.872Z,1019.91
2018-10-19T01:52:53.543Z,1019.91
2018-10-19T01:54:02.156Z,1019.91
2018-10-19T01:55:10.791Z,1019.92
2018-10-19T01:56:19.431Z,1019.93
2018-10-19T01:57:28.063Z,1019.92
2018-10-19T01:58:36.710Z,1019.92
2018-10-19T01:59:45.349Z,1019.9
2018-10-19T02:00:53.986Z,1019.95
2018-10-19T02:02:02.620Z,1019.92
2018-10-19T02:03:11.358Z,1019.97
2018-10-19T02:04:20.553Z,1019.92
2018-10-19T02:05:29.192Z,1019.92
2018-10-19T02:06:37.827Z,1019.9
2018-10-19T02:07:46.470Z,1019.89
2018-10-19T02:08:55.116Z,1019.9
2018-10-19T02:10:03.748Z,1019.87
2018-10-19T02:11:12.770Z,1019.89
2018-10-19T02:12:21.724Z,1019.84
2018-10-19T02:13:30.345Z,1019.88
2018-10-19T02:14:38.983Z,1019.86
2018-10-19T02:15:47.626Z,1019.86
2018-10-19T02:16:56.562Z,1019.86
2018-10-19T02:18:05.173Z,1019.85
2018-10-19T02:19:13.806Z,1019.86
2018-10-19T02:20:22.713Z,1019.87
2018-10-19T02:21:31.347Z,1019.87
2018-10-19T02:22:40.251Z,1019.89
2018-10-19T02:23:49.157Z,1019.86
2018-10-19T02:24:57.796Z,1019.86
2018-10-19T02:26:06.437Z,1019.84
2018-10-19T02:27:15.188Z,1019.83
2018-10-19T02:28:23.725Z,1019.85
2018-10-19T02:29:32.365Z,1019.84
2018-10-19T02:30:41.002Z,1019.86
2018-10-19T02:31:50.174Z,1019.83
2018-10-19T02:32:58.866Z,1019.87
2018-10-19T02:34:08.131Z,1019.87
2018-10-19T02:35:16.890Z,1019.81
2018-10-19T02:36:25.900Z,1019.84
2018-10-19T02:37:34.538Z,1019.79
2018-10-19T02:38:43.200Z,1019.8
2018-10-19T02:39:51.823Z,1019.78
2018-10-19T02:41:00.485Z,1019.81
2018-10-19T02:42:09.461Z,1019.82
2018-10-19T02:43:18.367Z,1019.81
2018-10-19T02:44:27.016Z,1019.79
2018-10-19T02:45:35.924Z,1019.83
2018-10-19T02:46:44.557Z,1019.8
2018-10-19T02:47:53.512Z,1019.77
2018-10-19T02:49:02.420Z,1019.78
2018-10-19T02:50:11.333Z,1019.8
2018-10-19T02:51:20.129Z,1019.79
2018-10-19T02:52:28.616Z,1019.79
2018-10-19T02:53:37.519Z,1019.82
2018-10-19T02:54:46.160Z,1019.78
2018-10-19T02:55:54.797Z,1019.82
2018-10-19T02:57:03.512Z,1019.82
2018-10-19T02:58:12.075Z,1019.81
2018-10-19T02:59:20.719Z,1019.82
2018-10-19T03:00:29.618Z,1019.82
2018-10-19T03:01:38.272Z,1019.85
2018-10-19T03:02:46.896Z,1019.83
2018-10-19T03:03:55.538Z,1019.85
2018-10-19T03:05:04.450Z,1019.82
2018-10-19T03:06:13.090Z,1019.8
2018-10-19T03:07:22.274Z,1019.81
2018-10-19T03:08:30.899Z,1019.84
2018-10-19T03:09:39.536Z,1019.84
2018-10-19T03:10:48.175Z,1019.88
2018-10-19T03:11:56.820Z,1019.87
2018-10-19T03:13:05.459Z,1019.88
2018-10-19T03:14:14.360Z,1019.92
2018-10-19T03:15:22.991Z,1019.9
2018-10-19T03:16:32.189Z,1019.88
2018-10-19T03:17:41.085Z,1019.85
2018-10-19T03:18:49.727Z,1019.86
2018-10-19T03:19:58.363Z,1019.86
2018-10-19T03:21:07.313Z,1019.87
2018-10-19T03:22:16.639Z,1019.86
2018-10-19T03:23:25.281Z,1019.84
2018-10-19T03:24:33.912Z,1019.82
2018-10-19T03:25:42.556Z,1019.8
2018-10-19T03:26:51.199Z,1019.78
2018-10-19T03:28:00.126Z,1019.81
2018-10-19T03:29:08.824Z,1019.78
2018-10-19T03:30:17.860Z,1019.8
2018-10-19T03:31:26.510Z,1019.79
2018-10-19T03:32:35.156Z,1019.75
2018-10-19T03:33:44.074Z,1019.76
2018-10-19T03:34:53.023Z,1019.74
2018-10-19T03:36:01.605Z,1019.78
2018-10-19T03:37:10.239Z,1019.73
2018-10-19T03:38:18.892Z,1019.74
2018-10-19T03:39:27.523Z,1019.74
2018-10-19T03:40:36.169Z,1019.78
2018-10-19T03:41:44.818Z,1019.74
2018-10-19T03:42:53.715Z,1019.78
2018-10-19T03:44:02.353Z,1019.74
2018-10-19T03:45:12.212Z,1019.73
2018-10-19T03:46:20.742Z,1019.69
2018-10-19T03:47:29.664Z,1019.72
2018-10-19T03:48:38.294Z,1019.72
2018-10-19T03:49:46.938Z,1019.73
2018-10-19T03:50:55.582Z,1019.73
2018-10-19T03:52:04.224Z,1019.73
2018-10-19T03:53:12.955Z,1019.74
2018-10-19T03:54:21.995Z,1019.73
2018-10-19T03:55:30.626Z,1019.73
2018-10-19T03:56:39.539Z,1019.77
2018-10-19T03:57:48.432Z,1019.76
2018-10-19T03:58:57.116Z,1019.76
2018-10-19T04:00:06.167Z,1019.75
2018-10-19T04:01:14.816Z,1019.75
2018-10-19T04:02:23.452Z,1019.76
2018-10-19T04:03:32.391Z,1019.8
2018-10-19T04:04:40.982Z,1019.8
2018-10-19T04:05:49.891Z,1019.77
2018-10-19T04:06:58.539Z,1019.78
2018-10-19T04:08:07.178Z,1019.79
2018-10-19T04:09:15.882Z,1019.84
2018-10-19T04:10:24.719Z,1019.78
2018-10-19T04:11:33.365Z,1019.81
2018-10-19T04:12:42.263Z,1019.8
2018-10-19T04:13:51.172Z,1019.82
2018-10-19T04:14:59.853Z,1019.82
2018-10-19T04:16:08.464Z,1019.8
2018-10-19T04:17:17.198Z,1019.87
2018-10-19T04:18:26.275Z,1019.84
2018-10-19T04:19:34.905Z,1019.86
2018-10-19T04:20:43.548Z,1019.85
2018-10-19T04:21:52.451Z,1019.82
2018-10-19T04:23:01.141Z,1019.9
2018-10-19T04:24:09.734Z,1019.87
2018-10-19T04:25:18.361Z,1019.89
2018-10-19T04:26:27.277Z,1019.89
2018-10-19T04:27:36.277Z,1019.92
2018-10-19T04:28:45.687Z,1019.91
2018-10-19T04:29:54.582Z,1019.92
2018-10-19T04:31:03.230Z,1019.89
2018-10-19T04:32:11.866Z,1019.9
2018-10-19T04:33:20.783Z,1019.87
2018-10-19T04:34:29.689Z,1019.92
2018-10-19T04:35:38.333Z,1019.89
2018-10-19T04:36:47.231Z,1019.89
2018-10-19T04:37:56.143Z,1019.87
2018-10-19T04:39:04.855Z,1019.87
2018-10-19T04:40:13.415Z,1019.89
2018-10-19T04:41:22.068Z,1019.93
2018-10-19T04:42:31.016Z,1019.86
2018-10-19T04:43:39.654Z,1019.89
2018-10-19T04:44:48.305Z,1019.89
2018-10-19T04:45:57.214Z,1019.87
2018-10-19T04:47:05.874Z,1019.88
2018-10-19T04:48:14.893Z,1019.85
2018-10-19T04:49:23.538Z,1019.86
2018-10-19T04:50:32.180Z,1019.86
2018-10-19T04:51:41.078Z,1019.88
2018-10-19T04:52:49.720Z,1019.91
2018-10-19T04:53:58.626Z,1019.87
2018-10-19T04:55:07.610Z,1019.86
2018-10-19T04:56:16.506Z,1019.9
2018-10-19T04:57:25.148Z,1019.87
2018-10-19T04:58:34.341Z,1019.89
2018-10-19T04:59:43.771Z,1019.89
2018-10-19T05:00:52.422Z,1019.87
2018-10-19T05:02:01.322Z,1019.88
2018-10-19T05:03:09.998Z,1019.89
2018-10-19T05:04:18.597Z,1019.89
2018-10-19T05:05:27.393Z,1019.92
2018-10-19T05:06:35.963Z,1019.89
2018-10-19T05:07:44.519Z,1019.91
2018-10-19T05:08:53.428Z,1019.93
2018-10-19T05:10:02.376Z,1019.93
2018-10-19T05:11:11.044Z,1019.92
2018-10-19T05:12:19.673Z,1019.93
2018-10-19T05:13:28.257Z,1019.93
2018-10-19T05:14:36.901Z,1019.95
2018-10-19T05:15:45.537Z,1019.92
2018-10-19T05:16:54.184Z,1019.92
2018-10-19T05:18:02.816Z,1019.94
2018-10-19T05:19:11.452Z,1019.92
2018-10-19T05:20:20.097Z,1019.92
2018-10-19T05:21:28.997Z,1019.9
2018-10-19T05:22:38.178Z,1019.92
2018-10-19T05:23:46.810Z,1019.92
2018-10-19T05:24:55.459Z,1019.92
2018-10-19T05:26:04.156Z,1019.91
2018-10-19T05:27:12.740Z,1019.88
2018-10-19T05:28:21.376Z,1019.89
2018-10-19T05:29:30.019Z,1019.9
2018-10-19T05:30:38.663Z,1019.87
2018-10-19T05:31:47.311Z,1019.91
2018-10-19T05:32:56.295Z,1019.92
2018-10-19T05:34:04.852Z,1019.86
2018-10-19T05:35:13.523Z,1019.93
2018-10-19T05:36:22.135Z,1019.94
2018-10-19T05:37:30.776Z,1019.92
2018-10-19T05:38:39.945Z,1020
2018-10-19T05:39:48.862Z,1019.98
2018-10-19T05:40:57.520Z,1019.98
2018-10-19T05:42:06.740Z,1020.01
2018-10-19T05:43:15.633Z,1020.01
2018-10-19T05:44:24.277Z,1019.98
2018-10-19T05:45:33.175Z,1019.98
2018-10-19T05:46:41.823Z,1020
2018-10-19T05:47:50.453Z,1020.02
2018-10-19T05:48:59.093Z,1020.03
2018-10-19T05:50:07.760Z,1020.01
2018-10-19T05:51:16.381Z,1019.99
2018-10-19T05:52:25.018Z,1020
2018-10-19T05:53:33.654Z,1020
2018-10-19T05:54:42.288Z,1020.02
2018-10-19T05:55:50.924Z,1020
2018-10-19T05:56:59.909Z,1019.99
2018-10-19T05:58:08.546Z,1020
2018-10-19T05:59:17.271Z,1019.98
2018-10-19T06:00:25.823Z,1019.99
2018-10-19T06:01:34.472Z,1019.97
2018-10-19T06:02:43.433Z,1020
2018-10-19T06:03:52.020Z,1020
2018-10-19T06:05:00.693Z,1019.99
2018-10-19T06:06:09.716Z,1019.98
2018-10-19T06:07:18.391Z,1020.01
2018-10-19T06:08:26.993Z,1019.97
2018-10-19T06:09:35.624Z,1020.02
2018-10-19T06:10:44.264Z,1020.05
2018-10-19T06:11:52.906Z,1020.01
2018-10-19T06:13:01.545Z,1020.05
2018-10-19T06:14:10.317Z,1020.05
2018-10-19T06:15:19.316Z,1020.07
2018-10-19T06:16:27.955Z,1020.1
2018-10-19T06:17:36.589Z,1020.12
2018-10-19T06:18:45.238Z,1020.14
2018-10-19T06:19:53.879Z,1020.18
2018-10-19T06:21:02.631Z,1020.19
2018-10-19T06:22:11.594Z,1020.19
2018-10-19T06:23:20.243Z,1020.18
2018-10-19T06:24:28.872Z,1020.22
2018-10-19T06:25:37.512Z,1020.26
2018-10-19T06:26:46.460Z,1020.27
2018-10-19T06:27:55.118Z,1020.29
2018-10-19T06:29:03.785Z,1020.3
2018-10-19T06:30:12.392Z,1020.27
2018-10-19T06:31:21.029Z,1020.31
2018-10-19T06:32:29.927Z,1020.28
2018-10-19T06:33:38.623Z,1020.29
2018-10-19T06:34:47.961Z,1020.31
2018-10-19T06:35:56.604Z,1020.31
2018-10-19T06:37:05.232Z,1020.27
2018-10-19T06:38:13.971Z,1020.28
2018-10-19T06:39:22.515Z,1020.31
2018-10-19T06:40:31.154Z,1020.29
2018-10-19T06:41:40.110Z,1020.32
2018-10-19T06:42:48.753Z,1020.32
2018-10-19T06:43:57.406Z,1020.32
2018-10-19T06:45:06.032Z,1020.33
2018-10-19T06:46:14.661Z,1020.31
2018-10-19T06:47:23.471Z,1020.32
2018-10-19T06:48:32.269Z,1020.3
2018-10-19T06:49:40.912Z,1020.3
2018-10-19T06:50:49.555Z,1020.3
2018-10-19T06:51:58.191Z,1020.32
2018-10-19T06:53:06.912Z,1020.29
2018-10-19T06:54:15.909Z,1020.37
2018-10-19T06:55:24.814Z,1020.35
2018-10-19T06:56:33.445Z,1020.4
2018-10-19T06:57:42.082Z,1020.42
2018-10-19T06:58:50.988Z,1020.47
2018-10-19T06:59:59.626Z,1020.45
2018-10-19T07:01:08.812Z,1020.45
2018-10-19T07:02:17.536Z,1020.44
2018-10-19T07:03:26.087Z,1020.44
2018-10-19T07:04:34.729Z,1020.43
2018-10-19T07:05:43.375Z,1020.43
2018-10-19T07:06:52.039Z,1020.42
2018-10-19T07:08:00.767Z,1020.41
2018-10-19T07:09:09.869Z,1020.46
2018-10-19T07:10:18.513Z,1020.47
2018-10-19T07:11:27.155Z,1020.47
2018-10-19T07:12:35.796Z,1020.44
2018-10-19T07:13:44.430Z,1020.46
2018-10-19T07:14:53.076Z,1020.45
2018-10-19T07:16:01.772Z,1020.45
2018-10-19T07:17:10.457Z,1020.47
2018-10-19T07:18:18.992Z,1020.47
2018-10-19T07:19:27.628Z,1020.45
2018-10-19T07:20:36.264Z,1020.46
2018-10-19T07:21:44.966Z,1020.45
2018-10-19T07:22:53.543Z,1020.44
2018-10-19T07:24:02.188Z,1020.46
2018-10-19T07:25:10.826Z,1020.46
2018-10-19T07:26:19.745Z,1020.52
2018-10-19T07:27:28.924Z,1020.49
2018-10-19T07:28:37.560Z,1020.51
2018-10-19T07:29:46.465Z,1020.5
2018-10-19T07:30:55.101Z,1020.5
2018-10-19T07:32:04.052Z,1020.51
2018-10-19T07:33:13.470Z,1020.51
2018-10-19T07:34:22.109Z,1020.5
2018-10-19T07:35:30.748Z,1020.49
2018-10-19T07:36:39.650Z,1020.51
2018-10-19T07:37:48.295Z,1020.46
2018-10-19T07:38:56.930Z,1020.51
2018-10-19T07:40:05.831Z,1020.51
2018-10-19T07:41:14.797Z,1020.46
2018-10-19T07:42:23.526Z,1020.5
2018-10-19T07:43:32.023Z,1020.53
2018-10-19T07:44:40.665Z,1020.52
2018-10-19T07:45:49.306Z,1020.53
2018-10-19T07:46:57.947Z,1020.55
2018-10-19T07:48:07.174Z,1020.52
2018-10-19T07:49:16.316Z,1020.54
2018-10-19T07:50:24.960Z,1020.55
2018-10-19T07:51:33.602Z,1020.55
2018-10-19T07:52:42.234Z,1020.57
2018-10-19T07:53:50.883Z,1020.61
2018-10-19T07:54:59.795Z,1020.58
2018-10-19T07:56:08.515Z,1020.61
2018-10-19T07:57:17.071Z,1020.63
2018-10-19T07:58:25.710Z,1020.61
2018-10-19T07:59:34.349Z,1020.63
2018-10-19T08:00:43.025Z,1020.66
2018-10-19T08:01:51.626Z,1020.67
2018-10-19T08:03:00.264Z,1020.65
2018-10-19T08:04:08.903Z,1020.66
2018-10-19T08:05:17.903Z,1020.65
2018-10-19T08:06:26.721Z,1020.63
2018-10-19T08:07:35.361Z,1020.64
2018-10-19T08:08:44.256Z,1020.62
2018-10-19T08:09:52.900Z,1020.59
2018-10-19T08:11:01.843Z,1020.59
2018-10-19T08:12:10.872Z,1020.6
2018-10-19T08:13:19.513Z,1020.62
2018-10-19T08:14:28.155Z,1020.66
2018-10-19T08:15:36.790Z,1020.62
2018-10-19T08:16:45.433Z,1020.64
2018-10-19T08:17:54.067Z,1020.61
2018-10-19T08:19:02.708Z,1020.61
2018-10-19T08:20:11.417Z,1020.61
2018-10-19T08:21:19.988Z,1020.62
2018-10-19T08:22:28.632Z,1020.64
2018-10-19T08:23:37.264Z,1020.64
2018-10-19T08:24:45.908Z,1020.68
2018-10-19T08:25:54.819Z,1020.68
2018-10-19T08:27:04.163Z,1020.68
2018-10-19T08:28:12.793Z,1020.66
2018-10-19T08:29:21.437Z,1020.65
2018-10-19T08:30:30.073Z,1020.66
2018-10-19T08:31:38.715Z,1020.7
2018-10-19T08:32:47.349Z,1020.64
2018-10-19T08:33:55.990Z,1020.65
2018-10-19T08:35:04.667Z,1020.63
2018-10-19T08:36:13.658Z,1020.6
2018-10-19T08:37:22.315Z,1020.64
2018-10-19T08:38:30.927Z,1020.66
2018-10-19T08:39:39.563Z,1020.65
2018-10-19T08:40:48.201Z,1020.65
2018-10-19T08:41:57.174Z,1020.65
2018-10-19T08:43:05.866Z,1020.67
2018-10-19T08:44:14.456Z,1020.64
2018-10-19T08:45:23.088Z,1020.63
2018-10-19T08:46:31.739Z,1020.65
2018-10-19T08:47:40.435Z,1020.62
2018-10-19T08:48:49.018Z,1020.72
2018-10-19T08:49:57.648Z,1020.72
2018-10-19T08:51:06.629Z,1020.72
2018-10-19T08:52:16.186Z,1020.73
2018-10-19T08:53:24.853Z,1020.73
2018-10-19T08:54:33.528Z,1020.7
2018-10-19T08:55:42.104Z,1020.71
2018-10-19T08:56:50.749Z,1020.73
2018-10-19T08:57:59.827Z,1020.78
2018-10-19T08:59:08.377Z,1020.76
2018-10-19T09:00:17.481Z,1020.76
2018-10-19T09:01:26.469Z,1020.75
2018-10-19T09:02:35.113Z,1020.73
2018-10-19T09:03:43.761Z,1020.74
2018-10-19T09:04:52.644Z,1020.76
2018-10-19T09:06:01.322Z,1020.73
2018-10-19T09:07:09.930Z,1020.74
2018-10-19T09:08:18.838Z,1020.71
2018-10-19T09:09:27.477Z,1020.71
2018-10-19T09:10:36.113Z,1020.75
2018-10-19T09:11:45.126Z,1020.73
2018-10-19T09:12:53.862Z,1020.73
2018-10-19T09:14:02.386Z,1020.73
2018-10-19T09:15:11.424Z,1020.68
2018-10-19T09:16:19.962Z,1020.66
2018-10-19T09:17:28.575Z,1020.65
2018-10-19T09:18:37.295Z,1020.65
2018-10-19T09:19:46.271Z,1020.66
2018-10-19T09:20:55.133Z,1020.66
2018-10-19T09:22:03.751Z,1020.63
2018-10-19T09:23:12.719Z,1020.7
2018-10-19T09:24:21.313Z,1020.71
2018-10-19T09:25:30.221Z,1020.72
2018-10-19T09:26:38.852Z,1020.68
2018-10-19T09:27:47.768Z,1020.68
2018-10-19T09:28:56.680Z,1020.67
2018-10-19T09:30:05.318Z,1020.65
2018-10-19T09:31:14.037Z,1020.63
2018-10-19T09:32:22.943Z,1020.65
2018-10-19T09:33:31.587Z,1020.62
2018-10-19T09:34:40.228Z,1020.58
2018-10-19T09:35:48.928Z,1020.58
2018-10-19T09:36:57.917Z,1020.61
2018-10-19T09:38:06.494Z,1020.6
2018-10-19T09:39:15.175Z,1020.57
2018-10-19T09:40:24.365Z,1020.54
2018-10-19T09:41:32.998Z,1020.51
2018-10-19T09:42:42.171Z,1020.51
2018-10-19T09:43:51.070Z,1020.54
2018-10-19T09:44:59.729Z,1020.52
2018-10-19T09:46:08.722Z,1020.52
2018-10-19T09:47:17.500Z,1020.52
2018-10-19T09:48:26.005Z,1020.55
2018-10-19T09:49:34.655Z,1020.55
2018-10-19T09:50:43.295Z,1020.54
2018-10-19T09:51:51.935Z,1020.56
2018-10-19T09:53:00.603Z,1020.52
2018-10-19T09:54:09.212Z,1020.56
2018-10-19T09:55:17.941Z,1020.55
2018-10-19T09:56:26.878Z,1020.51
2018-10-19T09:57:35.524Z,1020.5
2018-10-19T09:58:44.158Z,1020.47
2018-10-19T09:59:52.807Z,1020.47
2018-10-19T10:01:01.478Z,1020.49
2018-10-19T10:02:10.146Z,1020.48
2018-10-19T10:03:18.726Z,1020.46
2018-10-19T10:04:27.376Z,1020.42
2018-10-19T10:05:36.017Z,1020.44
2018-10-19T10:06:44.666Z,1020.41
2018-10-19T10:07:53.372Z,1020.4
2018-10-19T10:09:01.955Z,1020.39
2018-10-19T10:10:11.357Z,1020.36
2018-10-19T10:11:20.005Z,1020.4
2018-10-19T10:12:28.917Z,1020.42
2018-10-19T10:13:37.806Z,1020.43
2018-10-19T10:14:47.099Z,1020.45
2018-10-19T10:15:56.529Z,1020.47
2018-10-19T10:17:06.119Z,1020.43
2018-10-19T10:18:14.798Z,1020.45
2018-10-19T10:19:23.499Z,1020.45
2018-10-19T10:20:32.285Z,1020.47
2018-10-19T10:21:40.938Z,1020.46
2018-10-19T10:22:49.573Z,1020.45
2018-10-19T10:23:58.220Z,1020.46
2018-10-19T10:25:07.144Z,1020.41
2018-10-19T10:26:15.777Z,1020.38
2018-10-19T10:27:24.418Z,1020.4
2018-10-19T10:28:33.060Z,1020.38
2018-10-19T10:29:41.698Z,1020.36
2018-10-19T10:30:50.344Z,1020.38
2018-10-19T10:31:59.057Z,1020.37
2018-10-19T10:33:07.989Z,1020.32
2018-10-19T10:34:16.730Z,1020.36
2018-10-19T10:35:25.964Z,1020.36
2018-10-19T10:36:34.611Z,1020.39
2018-10-19T10:37:43.254Z,1020.38
2018-10-19T10:38:52.319Z,1020.43
2018-10-19T10:40:00.879Z,1020.41
2018-10-19T10:41:09.475Z,1020.39
2018-10-19T10:42:18.124Z,1020.37
2018-10-19T10:43:26.791Z,1020.42
2018-10-19T10:44:35.428Z,1020.41
2018-10-19T10:45:44.272Z,1020.41
2018-10-19T10:46:53.269Z,1020.38
2018-10-19T10:48:02.333Z,1020.38
2018-10-19T10:49:11.319Z,1020.35
2018-10-19T10:50:19.885Z,1020.32
2018-10-19T10:51:28.528Z,1020.3
2018-10-19T10:52:37.429Z,1020.28
2018-10-19T10:53:46.078Z,1020.24
2018-10-19T10:54:54.749Z,1020.26
2018-10-19T10:56:03.358Z,1020.19
2018-10-19T10:57:12.261Z,1020.21
2018-10-19T10:58:20.909Z,1020.17
2018-10-19T10:59:29.548Z,1020.12
2018-10-19T11:00:38.455Z,1020.14
2018-10-19T11:01:47.098Z,1020.13
2018-10-19T11:02:55.745Z,1020.11
2018-10-19T11:04:04.499Z,1020.09
2018-10-19T11:05:13.027Z,1020.11
2018-10-19T11:06:21.672Z,1020.05
2018-10-19T11:07:30.463Z,1020.03
2018-10-19T11:08:38.969Z,1020
2018-10-19T11:09:47.613Z,1019.97
2018-10-19T11:10:56.584Z,1019.93
2018-10-19T11:12:05.223Z,1019.96
2018-10-19T11:13:13.928Z,1020.02
2018-10-19T11:14:22.519Z,1019.97
2018-10-19T11:15:31.163Z,1019.99
2018-10-19T11:16:40.060Z,1020.05
2018-10-19T11:17:48.709Z,1020.05
2018-10-19T11:18:57.628Z,1020.03
2018-10-19T11:20:06.549Z,1020.01
2018-10-19T11:21:15.191Z,1019.96
2018-10-19T11:22:23.837Z,1019.95
2018-10-19T11:23:32.485Z,1019.92
2018-10-19T11:24:41.134Z,1019.94
2018-10-19T11:25:50.043Z,1019.9
2018-10-19T11:26:58.687Z,1019.89
2018-10-19T11:28:07.660Z,1019.92
2018-10-19T11:29:16.241Z,1019.89
2018-10-19T11:30:24.917Z,1019.88
2018-10-19T11:31:33.535Z,1019.86
2018-10-19T11:32:42.180Z,1019.82
2018-10-19T11:33:50.823Z,1019.81
2018-10-19T11:34:59.839Z,1019.81
2018-10-19T11:36:08.488Z,1019.82
2018-10-19T11:37:17.146Z,1019.79
2018-10-19T11:38:25.779Z,1019.81
2018-10-19T11:39:34.419Z,1019.8
2018-10-19T11:40:43.091Z,1019.84
2018-10-19T11:41:51.740Z,1019.87
2018-10-19T11:43:00.434Z,1019.83
2018-10-19T11:44:09.339Z,1019.82
2018-10-19T11:45:17.980Z,1019.83
2018-10-19T11:46:26.627Z,1019.8
2018-10-19T11:47:35.271Z,1019.79
2018-10-19T11:48:43.956Z,1019.84
2018-10-19T11:49:53.057Z,1019.83
2018-10-19T11:51:01.679Z,1019.84
2018-10-19T11:52:10.379Z,1019.83
2018-10-19T11:53:19.382Z,1019.81
2018-10-19T11:54:28.013Z,1019.78
2018-10-19T11:55:36.658Z,1019.77
2018-10-19T11:56:45.304Z,1019.77
2018-10-19T11:57:54.011Z,1019.77
2018-10-19T11:59:02.593Z,1019.74
2018-10-19T12:00:11.239Z,1019.7
2018-10-19T12:01:19.881Z,1019.71
2018-10-19T12:02:28.784Z,1019.69
2018-10-19T12:03:37.495Z,1019.69
2018-10-19T12:04:46.464Z,1019.71
2018-10-19T12:05:55.377Z,1019.69
2018-10-19T12:07:04.076Z,1019.71
2018-10-19T12:08:13.059Z,1019.68
2018-10-19T12:09:21.704Z,1019.66
2018-10-19T12:10:30.365Z,1019.64
2018-10-19T12:11:38.990Z,1019.68
2018-10-19T12:12:47.911Z,1019.66
2018-10-19T12:13:56.555Z,1019.65
2018-10-19T12:15:05.223Z,1019.72
2018-10-19T12:16:14.155Z,1019.68
2018-10-19T12:17:23.031Z,1019.73
2018-10-19T12:18:31.675Z,1019.7
2018-10-19T12:19:40.570Z,1019.72
2018-10-19T12:20:49.235Z,1019.69
2018-10-19T12:21:57.860Z,1019.7
2018-10-19T12:23:06.504Z,1019.73
2018-10-19T12:24:15.146Z,1019.71
2018-10-19T12:25:23.794Z,1019.7
2018-10-19T12:26:32.433Z,1019.7
2018-10-19T12:27:41.079Z,1019.71
2018-10-19T12:28:49.723Z,1019.68
2018-10-19T12:29:58.683Z,1019.74
2018-10-19T12:31:07.699Z,1019.66
2018-10-19T12:32:16.241Z,1019.66
2018-10-19T12:33:24.884Z,1019.69
2018-10-19T12:34:33.538Z,1019.68
2018-10-19T12:35:42.457Z,1019.61
2018-10-19T12:36:51.358Z,1019.61
2018-10-19T12:38:00.000Z,1019.62
2018-10-19T12:39:08.762Z,1019.62
2018-10-19T12:40:17.805Z,1019.62
2018-10-19T12:41:26.814Z,1019.62
2018-10-19T12:42:35.462Z,1019.55
2018-10-19T12:43:44.099Z,1019.6
2018-10-19T12:44:52.783Z,1019.59
2018-10-19T12:46:01.398Z,1019.6
2018-10-19T12:47:10.094Z,1019.62
2018-10-19T12:48:18.683Z,1019.57
2018-10-19T12:49:27.339Z,1019.55
2018-10-19T12:50:36.249Z,1019.57
2018-10-19T12:51:44.900Z,1019.56
2018-10-19T12:52:53.533Z,1019.56
2018-10-19T12:54:02.204Z,1019.58
2018-10-19T12:55:11.261Z,1019.56
2018-10-19T12:56:19.794Z,1019.6
2018-10-19T12:57:28.767Z,1019.55
2018-10-19T12:58:37.748Z,1019.56
2018-10-19T12:59:46.400Z,1019.52
2018-10-19T13:00:55.074Z,1019.53
2018-10-19T13:02:04.393Z,1019.53
2018-10-19T13:03:13.194Z,1019.56
2018-10-19T13:04:21.811Z,1019.53
2018-10-19T13:05:30.453Z,1019.51
2018-10-19T13:06:39.117Z,1019.51
2018-10-19T13:07:48.010Z,1019.46
2018-10-19T13:08:56.977Z,1019.47
2018-10-19T13:10:05.571Z,1019.45
2018-10-19T13:11:14.753Z,1019.45
2018-10-19T13:12:23.399Z,1019.47
2018-10-19T13:13:32.041Z,1019.44
2018-10-19T13:14:40.682Z,1019.45
2018-10-19T13:15:49.584Z,1019.43
2018-10-19T13:16:58.246Z,1019.43
2018-10-19T13:18:07.200Z,1019.48
2018-10-19T13:19:16.133Z,1019.46
2018-10-19T13:20:24.702Z,1019.45
2018-10-19T13:21:33.357Z,1019.45
2018-10-19T13:22:42.000Z,1019.43
2018-10-19T13:23:50.655Z,1019.41
2018-10-19T13:24:59.847Z,1019.39
2018-10-19T13:26:08.500Z,1019.37
2018-10-19T13:27:17.244Z,1019.36
2018-10-19T13:28:25.788Z,1019.35
2018-10-19T13:29:34.425Z,1019.32
2018-10-19T13:30:43.073Z,1019.3
2018-10-19T13:31:51.718Z,1019.32
2018-10-19T13:33:00.371Z,1019.31
2018-10-19T13:34:09.355Z,1019.32
2018-10-19T13:35:17.935Z,1019.29
2018-10-19T13:36:26.839Z,1019.26
2018-10-19T13:37:35.484Z,1019.28
2018-10-19T13:38:44.135Z,1019.22
2018-10-19T13:39:53.107Z,1019.2
2018-10-19T13:41:01.754Z,1019.23
2018-10-19T13:42:10.393Z,1019.24
2018-10-19T13:43:19.040Z,1019.23
2018-10-19T13:44:27.943Z,1019.17
2018-10-19T13:45:36.621Z,1019.2
2018-10-19T13:46:45.232Z,1019.19
2018-10-19T13:47:53.879Z,1019.15
2018-10-19T13:49:02.520Z,1019.18
2018-10-19T13:50:11.165Z,1019.2
2018-10-19T13:51:19.810Z,1019.18
2018-10-19T13:52:28.539Z,1019.23
2018-10-19T13:53:37.104Z,1019.2
2018-10-19T13:54:45.749Z,1019.21